sensor_id;sensor_type;location;lat;lon;timestamp;pressure;altitude;pressure_sealevel;temperature;humidity
76297;BME280;65104;52.994;6.552;2023-10-13T00:00:33;101042.41;;;15.13;100.00
76297;BME280;65104;52.994;6.552;2023-10-13T00:03:04;101033.81;;;15.22;100.00
76297;BME280;65104;52.994;6.552;2023-10-13T00:05:33;101034.72;;;15.19;100.00
76297;BME280;65104;52.994;6.552;2023-10-13T00:08:03;101032.97;;;15.20;100.00
76297;BME280;65104;52.994;6.552;2023-10-13T00:10:32;101030.41;;;15.26;100.00
76297;BME280;65104;52.994;6.552;2023-10-13T00:13:02;101037.31;;;15.28;100.00
76297;BME280;65104;52.994;6.552;2023-10-13T00:15:46;101033.84;;;15.31;100.00
76297;BME280;65104;52.994;6.552;2023-10-13T00:18:31;101024.38;;;15.34;100.00
76297;BME280;65104;52.994;6.552;2023-10-13T00:21:17;101020.94;;;15.42;100.00
76297;BME280;65104;52.994;6.552;2023-10-13T00:24:03;101012.34;;;15.46;100.00
76297;BME280;65104;52.994;6.552;2023-10-13T00:26:32;101011.47;;;15.47;100.00
76297;BME280;65104;52.994;6.552;2023-10-13T00:29:08;101017.50;;;15.49;100.00
76297;BME280;65104;52.994;6.552;2023-10-13T00:31:35;101015.81;;;15.60;100.00
76297;BME280;65104;52.994;6.552;2023-10-13T00:34:07;101010.66;;;15.63;100.00
76297;BME280;65104;52.994;6.552;2023-10-13T00:36:52;101014.13;;;15.71;100.00
76297;BME280;65104;52.994;6.552;2023-10-13T00:39:36;101018.41;;;15.75;100.00
76297;BME280;65104;52.994;6.552;2023-10-13T00:42:16;101016.72;;;15.83;100.00
76297;BME280;65104;52.994;6.552;2023-10-13T00:45:00;101010.66;;;15.84;100.00
76297;BME280;65104;52.994;6.552;2023-10-13T00:47:26;101008.06;;;15.90;100.00
76297;BME280;65104;52.994;6.552;2023-10-13T00:50:21;100994.25;;;15.94;100.00
76297;BME280;65104;52.994;6.552;2023-10-13T00:52:50;101008.06;;;16.01;100.00
76297;BME280;65104;52.994;6.552;2023-10-13T00:55:19;101002.88;;;16.02;100.00
76297;BME280;65104;52.994;6.552;2023-10-13T00:57:51;100993.38;;;16.03;100.00
76297;BME280;65104;52.994;6.552;2023-10-13T01:00:20;100991.66;;;16.06;100.00
76297;BME280;65104;52.994;6.552;2023-10-13T01:02:53;100986.47;;;16.03;100.00
76297;BME280;65104;52.994;6.552;2023-10-13T01:05:25;100981.28;;;16.03;100.00
76297;BME280;65104;52.994;6.552;2023-10-13T01:07:51;100983.00;;;16.13;100.00
76297;BME280;65104;52.994;6.552;2023-10-13T01:10:23;100983.00;;;16.13;100.00
76297;BME280;65104;52.994;6.552;2023-10-13T01:12:54;100967.47;;;16.17;100.00
76297;BME280;65104;52.994;6.552;2023-10-13T01:15:20;100975.22;;;16.20;100.00
76297;BME280;65104;52.994;6.552;2023-10-13T01:17:49;100970.06;;;16.18;100.00
76297;BME280;65104;52.994;6.552;2023-10-13T01:20:16;100968.31;;;16.26;100.00
76297;BME280;65104;52.994;6.552;2023-10-13T01:22:53;100973.50;;;16.26;100.00
76297;BME280;65104;52.994;6.552;2023-10-13T01:25:25;100962.25;;;16.23;100.00
76297;BME280;65104;52.994;6.552;2023-10-13T01:27:55;100960.50;;;16.31;100.00
76297;BME280;65104;52.994;6.552;2023-10-13T01:30:21;100957.03;;;16.29;100.00
76297;BME280;65104;52.994;6.552;2023-10-13T01:32:53;100947.56;;;16.25;100.00
76297;BME280;65104;52.994;6.552;2023-10-13T01:35:20;100954.47;;;16.26;100.00
76297;BME280;65104;52.994;6.552;2023-10-13T01:37:51;100940.63;;;16.33;100.00
76297;BME280;65104;52.994;6.552;2023-10-13T01:40:17;100941.50;;;16.29;100.00
76297;BME280;65104;52.994;6.552;2023-10-13T01:42:47;100934.59;;;16.32;100.00
76297;BME280;65104;52.994;6.552;2023-10-13T01:45:14;100937.22;;;16.23;100.00
76297;BME280;65104;52.994;6.552;2023-10-13T01:47:41;100937.22;;;16.25;100.00
76297;BME280;65104;52.994;6.552;2023-10-13T01:50:08;100932.84;;;16.33;100.00
76297;BME280;65104;52.994;6.552;2023-10-13T01:53:00;100926.81;;;16.37;100.00
76297;BME280;65104;52.994;6.552;2023-10-13T01:55:39;100925.06;;;16.37;100.00
76297;BME280;65104;52.994;6.552;2023-10-13T01:58:14;100919.00;;;16.38;100.00
76297;BME280;65104;52.994;6.552;2023-10-13T02:00:49;100911.22;;;16.38;100.00
76297;BME280;65104;52.994;6.552;2023-10-13T02:03:16;100910.38;;;16.38;100.00
76297;BME280;65104;52.994;6.552;2023-10-13T02:05:46;100905.19;;;16.41;100.00
76297;BME280;65104;52.994;6.552;2023-10-13T02:08:21;100891.34;;;16.43;100.00
76297;BME280;65104;52.994;6.552;2023-10-13T02:10:55;100896.53;;;16.43;100.00
76297;BME280;65104;52.994;6.552;2023-10-13T02:13:23;100888.78;;;16.43;100.00
76297;BME280;65104;52.994;6.552;2023-10-13T02:15:54;100893.13;;;16.37;100.00
76297;BME280;65104;52.994;6.552;2023-10-13T02:18:33;100887.91;;;16.40;100.00
76297;BME280;65104;52.994;6.552;2023-10-13T02:21:09;100887.03;;;16.42;100.00
76297;BME280;65104;52.994;6.552;2023-10-13T02:23:41;100882.72;;;16.44;100.00
76297;BME280;65104;52.994;6.552;2023-10-13T02:26:09;100883.59;;;16.42;100.00
76297;BME280;65104;52.994;6.552;2023-10-13T02:28:40;100878.44;;;16.36;100.00
76297;BME280;65104;52.994;6.552;2023-10-13T02:31:06;100872.34;;;16.43;100.00
76297;BME280;65104;52.994;6.552;2023-10-13T02:33:34;100871.50;;;16.39;100.00
76297;BME280;65104;52.994;6.552;2023-10-13T02:36:05;100860.25;;;16.39;100.00
76297;BME280;65104;52.994;6.552;2023-10-13T02:38:32;100851.63;;;16.40;100.00
76297;BME280;65104;52.994;6.552;2023-10-13T02:41:18;100850.72;;;16.50;100.00
76297;BME280;65104;52.994;6.552;2023-10-13T02:43:55;100848.13;;;16.50;100.00
76297;BME280;65104;52.994;6.552;2023-10-13T02:46:22;100844.66;;;16.46;100.00
76297;BME280;65104;52.994;6.552;2023-10-13T02:48:48;100841.19;;;16.54;100.00
76297;BME280;65104;52.994;6.552;2023-10-13T02:51:20;100841.19;;;16.52;100.00
76297;BME280;65104;52.994;6.552;2023-10-13T02:53:50;100836.03;;;16.52;100.00
76297;BME280;65104;52.994;6.552;2023-10-13T02:56:19;100837.75;;;16.47;100.00
76297;BME280;65104;52.994;6.552;2023-10-13T02:58:52;100842.13;;;16.43;100.00
76297;BME280;65104;52.994;6.552;2023-10-13T03:01:35;100842.06;;;16.46;100.00
76297;BME280;65104;52.994;6.552;2023-10-13T03:04:05;100835.22;;;16.42;100.00
76297;BME280;65104;52.994;6.552;2023-10-13T03:06:39;100835.22;;;16.41;100.00
76297;BME280;65104;52.994;6.552;2023-10-13T03:09:09;100828.31;;;16.38;100.00
76297;BME280;65104;52.994;6.552;2023-10-13T03:11:45;100825.75;;;16.34;100.00
76297;BME280;65104;52.994;6.552;2023-10-13T03:14:23;100823.97;;;16.37;100.00
76297;BME280;65104;52.994;6.552;2023-10-13T03:16:53;100817.94;;;16.41;100.00
76297;BME280;65104;52.994;6.552;2023-10-13T03:19:18;100818.78;;;16.39;100.00
76297;BME280;65104;52.994;6.552;2023-10-13T03:21:46;100813.63;;;16.39;100.00
76297;BME280;65104;52.994;6.552;2023-10-13T03:24:30;100797.19;;;16.38;100.00
76297;BME280;65104;52.994;6.552;2023-10-13T03:27:01;100798.06;;;16.42;100.00
76297;BME280;65104;52.994;6.552;2023-10-13T03:29:39;100807.56;;;16.40;100.00
76297;BME280;65104;52.994;6.552;2023-10-13T03:32:10;100798.97;;;16.36;100.00
76297;BME280;65104;52.994;6.552;2023-10-13T03:34:43;100780.81;;;16.35;100.00
76297;BME280;65104;52.994;6.552;2023-10-13T03:37:33;100790.28;;;16.40;100.00
76297;BME280;65104;52.994;6.552;2023-10-13T03:42:34;100775.59;;;16.38;100.00
76297;BME280;65104;52.994;6.552;2023-10-13T03:45:06;100764.38;;;16.37;100.00
76297;BME280;65104;52.994;6.552;2023-10-13T03:47:35;100764.38;;;16.37;100.00
76297;BME280;65104;52.994;6.552;2023-10-13T03:50:05;100753.13;;;16.40;100.00
76297;BME280;65104;52.994;6.552;2023-10-13T03:52:42;100751.41;;;16.43;100.00
76297;BME280;65104;52.994;6.552;2023-10-13T03:55:09;100747.09;;;16.41;100.00
76297;BME280;65104;52.994;6.552;2023-10-13T03:57:43;100733.31;;;16.36;100.00
76297;BME280;65104;52.994;6.552;2023-10-13T04:00:13;100728.94;;;16.41;100.00
76297;BME280;65104;52.994;6.552;2023-10-13T04:02:47;100728.94;;;16.45;100.00
76297;BME280;65104;52.994;6.552;2023-10-13T04:05:20;100715.19;;;16.34;100.00
76297;BME280;65104;52.994;6.552;2023-10-13T04:08:15;100711.75;;;16.29;100.00
76297;BME280;65104;52.994;6.552;2023-10-13T04:10:59;100702.25;;;16.30;100.00
76297;BME280;65104;52.994;6.552;2023-10-13T04:13:43;100697.91;;;16.32;100.00
76297;BME280;65104;52.994;6.552;2023-10-13T04:16:36;100688.47;;;16.22;100.00
76297;BME280;65104;52.994;6.552;2023-10-13T04:19:04;100679.84;;;16.23;100.00
76297;BME280;65104;52.994;6.552;2023-10-13T04:21:34;100677.25;;;16.20;100.00
76297;BME280;65104;52.994;6.552;2023-10-13T04:24:09;100656.59;;;16.12;100.00
76297;BME280;65104;52.994;6.552;2023-10-13T04:26:50;100666.88;;;16.27;100.00
76297;BME280;65104;52.994;6.552;2023-10-13T04:29:40;100662.56;;;16.25;100.00
76297;BME280;65104;52.994;6.552;2023-10-13T04:32:18;100649.66;;;16.19;100.00
76297;BME280;65104;52.994;6.552;2023-10-13T04:34:57;100641.03;;;16.18;100.00
76297;BME280;65104;52.994;6.552;2023-10-13T04:37:39;100631.53;;;16.16;100.00
76297;BME280;65104;52.994;6.552;2023-10-13T04:40:28;100620.31;;;16.17;100.00
76297;BME280;65104;52.994;6.552;2023-10-13T04:43:03;100628.09;;;16.15;100.00
76297;BME280;65104;52.994;6.552;2023-10-13T04:45:52;100639.28;;;16.19;100.00
76297;BME280;65104;52.994;6.552;2023-10-13T04:48:23;100630.63;;;16.23;100.00
76297;BME280;65104;52.994;6.552;2023-10-13T04:50:51;100629.75;;;16.25;100.00
76297;BME280;65104;52.994;6.552;2023-10-13T04:53:22;100614.25;;;16.18;100.00
76297;BME280;65104;52.994;6.552;2023-10-13T04:56:01;100608.22;;;16.17;100.00
76297;BME280;65104;52.994;6.552;2023-10-13T04:58:53;100576.19;;;16.23;100.00
76297;BME280;65104;52.994;6.552;2023-10-13T05:01:39;100581.41;;;16.21;100.00
76297;BME280;65104;52.994;6.552;2023-10-13T05:04:25;100565.00;;;16.21;100.00
76297;BME280;65104;52.994;6.552;2023-10-13T05:07:10;100577.94;;;16.21;100.00
76297;BME280;65104;52.994;6.552;2023-10-13T05:10:05;100571.94;;;16.19;100.00
76297;BME280;65104;52.994;6.552;2023-10-13T05:12:50;100552.97;;;16.15;100.00
76297;BME280;65104;52.994;6.552;2023-10-13T05:15:48;100542.69;;;16.04;100.00
76297;BME280;65104;52.994;6.552;2023-10-13T05:18:34;100535.75;;;16.09;100.00
76297;BME280;65104;52.994;6.552;2023-10-13T05:21:19;100533.19;;;16.06;100.00
76297;BME280;65104;52.994;6.552;2023-10-13T05:24:05;100539.25;;;16.02;100.00
76297;BME280;65104;52.994;6.552;2023-10-13T05:26:50;100541.00;;;16.00;100.00
76297;BME280;65104;52.994;6.552;2023-10-13T05:29:38;100528.91;;;16.01;100.00
76297;BME280;65104;52.994;6.552;2023-10-13T05:32:23;100513.34;;;16.02;100.00
76297;BME280;65104;52.994;6.552;2023-10-13T05:35:07;100513.38;;;15.99;100.00
76297;BME280;65104;52.994;6.552;2023-10-13T05:37:51;100516.84;;;15.97;100.00
76297;BME280;65104;52.994;6.552;2023-10-13T05:40:36;100503.88;;;16.00;100.00
76297;BME280;65104;52.994;6.552;2023-10-13T05:43:22;100500.50;;;15.92;100.00
76297;BME280;65104;52.994;6.552;2023-10-13T05:46:07;100487.59;;;15.87;100.00
76297;BME280;65104;52.994;6.552;2023-10-13T05:49:02;100492.69;;;15.93;100.00
76297;BME280;65104;52.994;6.552;2023-10-13T05:51:38;100480.72;;;15.83;100.00
76297;BME280;65104;52.994;6.552;2023-10-13T05:54:23;100469.47;;;15.84;100.00
76297;BME280;65104;52.994;6.552;2023-10-13T05:57:07;100473.72;;;15.94;100.00
76297;BME280;65104;52.994;6.552;2023-10-13T05:59:53;100465.13;;;15.92;100.00
76297;BME280;65104;52.994;6.552;2023-10-13T06:02:51;100461.69;;;15.90;100.00
76297;BME280;65104;52.994;6.552;2023-10-13T06:05:37;100461.63;;;15.93;100.00
76297;BME280;65104;52.994;6.552;2023-10-13T06:08:27;100462.47;;;15.95;100.00
76297;BME280;65104;52.994;6.552;2023-10-13T06:11:11;100465.94;;;15.94;100.00
76297;BME280;65104;52.994;6.552;2023-10-13T06:13:55;100466.78;;;15.96;100.00
76297;BME280;65104;52.994;6.552;2023-10-13T06:16:40;100465.91;;;16.00;100.00
76297;BME280;65104;52.994;6.552;2023-10-13T06:19:25;100459.94;;;15.92;100.00
76297;BME280;65104;52.994;6.552;2023-10-13T06:22:10;100458.25;;;15.85;100.00
76297;BME280;65104;52.994;6.552;2023-10-13T06:24:55;100458.25;;;15.88;100.00
76297;BME280;65104;52.994;6.552;2023-10-13T06:27:39;100455.66;;;15.88;100.00
76297;BME280;65104;52.994;6.552;2023-10-13T06:30:24;100458.16;;;15.94;100.00
76297;BME280;65104;52.994;6.552;2023-10-13T06:32:51;100462.50;;;15.94;100.00
76297;BME280;65104;52.994;6.552;2023-10-13T06:35:17;100465.84;;;16.02;100.00
76297;BME280;65104;52.994;6.552;2023-10-13T06:37:50;100455.47;;;16.06;100.00
76297;BME280;65104;52.994;6.552;2023-10-13T06:40:17;100443.41;;;16.04;100.00
76297;BME280;65104;52.994;6.552;2023-10-13T06:43:04;100450.31;;;16.03;100.00
76297;BME280;65104;52.994;6.552;2023-10-13T06:45:43;100450.31;;;16.02;100.00
76297;BME280;65104;52.994;6.552;2023-10-13T06:48:30;100464.03;;;16.14;100.00
76297;BME280;65104;52.994;6.552;2023-10-13T06:51:01;100462.31;;;16.10;100.00
76297;BME280;65104;52.994;6.552;2023-10-13T06:53:32;100458.00;;;16.12;100.00
76297;BME280;65104;52.994;6.552;2023-10-13T06:56:07;100483.00;;;16.18;100.00
76297;BME280;65104;52.994;6.552;2023-10-13T06:58:34;100472.53;;;16.27;100.00
76297;BME280;65104;52.994;6.552;2023-10-13T07:01:06;100472.38;;;16.39;100.00
76297;BME280;65104;52.994;6.552;2023-10-13T07:03:34;100461.16;;;16.42;100.00
76297;BME280;65104;52.994;6.552;2023-10-13T07:06:00;100447.34;;;16.38;100.00
76297;BME280;65104;52.994;6.552;2023-10-13T07:08:27;100451.66;;;16.38;100.00
76297;BME280;65104;52.994;6.552;2023-10-13T07:10:57;100430.03;;;16.42;100.00
76297;BME280;65104;52.994;6.552;2023-10-13T07:13:44;100434.38;;;16.40;100.00
76297;BME280;65104;52.994;6.552;2023-10-13T07:16:16;100426.59;;;16.41;100.00
76297;BME280;65104;52.994;6.552;2023-10-13T07:18:45;100444.69;;;16.46;100.00
76297;BME280;65104;52.994;6.552;2023-10-13T07:21:24;100440.31;;;16.48;100.00
76297;BME280;65104;52.994;6.552;2023-10-13T07:23:56;100438.59;;;16.47;100.00
76297;BME280;65104;52.994;6.552;2023-10-13T07:26:38;100436.00;;;16.50;100.00
76297;BME280;65104;52.994;6.552;2023-10-13T07:29:13;100436.84;;;16.52;100.00
76297;BME280;65104;52.994;6.552;2023-10-13T07:31:41;100439.47;;;16.49;100.00
76297;BME280;65104;52.994;6.552;2023-10-13T07:34:10;100442.09;;;16.46;100.00
76297;BME280;65104;52.994;6.552;2023-10-13T07:36:42;100432.63;;;16.43;100.00
76297;BME280;65104;52.994;6.552;2023-10-13T07:39:09;100430.06;;;16.39;100.00
76297;BME280;65104;52.994;6.552;2023-10-13T07:41:57;100423.22;;;16.33;100.00
76297;BME280;65104;52.994;6.552;2023-10-13T07:44:31;100418.84;;;16.40;100.00
76297;BME280;65104;52.994;6.552;2023-10-13T07:47:03;100415.41;;;16.38;100.00
76297;BME280;65104;52.994;6.552;2023-10-13T07:49:37;100417.16;;;16.36;100.00
76297;BME280;65104;52.994;6.552;2023-10-13T07:52:11;100418.03;;;16.35;100.00
76297;BME280;65104;52.994;6.552;2023-10-13T07:54:50;100426.66;;;16.37;100.00
76297;BME280;65104;52.994;6.552;2023-10-13T07:57:47;100434.38;;;16.40;100.00
76297;BME280;65104;52.994;6.552;2023-10-13T08:00:21;100430.13;;;16.36;100.00
76297;BME280;65104;52.994;6.552;2023-10-13T08:03:07;100427.47;;;16.40;100.00
76297;BME280;65104;52.994;6.552;2023-10-13T08:05:43;100403.16;;;16.49;100.00
76297;BME280;65104;52.994;6.552;2023-10-13T08:08:44;100370.44;;;16.43;100.00
76297;BME280;65104;52.994;6.552;2023-10-13T08:11:16;100371.22;;;16.47;100.00
76297;BME280;65104;52.994;6.552;2023-10-13T08:14:12;100359.19;;;16.44;100.00
76297;BME280;65104;52.994;6.552;2023-10-13T08:16:40;100343.53;;;16.50;100.00
76297;BME280;65104;52.994;6.552;2023-10-13T08:19:22;100347.00;;;16.51;100.00
76297;BME280;65104;52.994;6.552;2023-10-13T08:22:08;100346.88;;;16.59;100.00
76297;BME280;65104;52.994;6.552;2023-10-13T08:24:45;100325.31;;;16.57;100.00
76297;BME280;65104;52.994;6.552;2023-10-13T08:27:12;100315.75;;;16.60;100.00
76297;BME280;65104;52.994;6.552;2023-10-13T08:29:42;100322.69;;;16.61;100.00
76297;BME280;65104;52.994;6.552;2023-10-13T08:32:25;100307.16;;;16.61;100.00
76297;BME280;65104;52.994;6.552;2023-10-13T08:34:59;100308.91;;;16.56;100.00
76297;BME280;65104;52.994;6.552;2023-10-13T08:37:45;100308.97;;;16.53;100.00
76297;BME280;65104;52.994;6.552;2023-10-13T08:40:17;100316.66;;;16.58;100.00
76297;BME280;65104;52.994;6.552;2023-10-13T08:43:06;100327.88;;;16.61;100.00
76297;BME280;65104;52.994;6.552;2023-10-13T08:45:36;100317.50;;;16.61;100.00
76297;BME280;65104;52.994;6.552;2023-10-13T08:48:05;100309.69;;;16.64;100.00
76297;BME280;65104;52.994;6.552;2023-10-13T08:50:50;100301.97;;;16.61;100.00
76297;BME280;65104;52.994;6.552;2023-10-13T08:56:25;100281.97;;;16.69;100.00
76297;BME280;65104;52.994;6.552;2023-10-13T08:59:07;100281.94;;;16.71;100.00
76297;BME280;65104;52.994;6.552;2023-10-13T09:01:36;100277.38;;;16.85;100.00
76297;BME280;65104;52.994;6.552;2023-10-13T09:04:15;100286.00;;;16.87;100.00
76297;BME280;65104;52.994;6.552;2023-10-13T09:06:54;100279.78;;;16.97;100.00
76297;BME280;65104;52.994;6.552;2023-10-13T09:09:49;100259.78;;;17.05;100.00
76297;BME280;65104;52.994;6.552;2023-10-13T09:12:29;100261.31;;;17.17;100.00
76297;BME280;65104;52.994;6.552;2023-10-13T09:15:04;100262.91;;;17.24;100.00
76297;BME280;65104;52.994;6.552;2023-10-13T09:17:50;100254.31;;;17.20;100.00
76297;BME280;65104;52.994;6.552;2023-10-13T09:20:27;100239.47;;;17.27;100.00
76297;BME280;65104;52.994;6.552;2023-10-13T09:23:13;100244.75;;;17.24;100.00
76297;BME280;65104;52.994;6.552;2023-10-13T09:26:05;100239.47;;;17.27;100.00
76297;BME280;65104;52.994;6.552;2023-10-13T09:28:57;100233.25;;;17.37;100.00
76297;BME280;65104;52.994;6.552;2023-10-13T09:31:24;100221.13;;;17.38;100.00
76297;BME280;65104;52.994;6.552;2023-10-13T09:33:52;100217.50;;;17.46;100.00
76297;BME280;65104;52.994;6.552;2023-10-13T09:36:22;100215.59;;;17.54;100.00
76297;BME280;65104;52.994;6.552;2023-10-13T09:38:47;100212.72;;;17.71;100.00
76297;BME280;65104;52.994;6.552;2023-10-13T09:41:33;100199.56;;;17.79;100.00
76297;BME280;65104;52.994;6.552;2023-10-13T09:44:04;100203.03;;;17.79;100.00
76297;BME280;65104;52.994;6.552;2023-10-13T09:46:31;100199.41;;;17.86;100.00
76297;BME280;65104;52.994;6.552;2023-10-13T09:49:11;100195.81;;;17.92;100.00
76297;BME280;65104;52.994;6.552;2023-10-13T09:52:01;100189.59;;;17.99;100.00
76297;BME280;65104;52.994;6.552;2023-10-13T09:54:39;100188.66;;;18.03;100.00
76297;BME280;65104;52.994;6.552;2023-10-13T09:57:17;100190.16;;;18.13;100.00
76297;BME280;65104;52.994;6.552;2023-10-13T10:00:00;100183.97;;;18.17;100.00
76297;BME280;65104;52.994;6.552;2023-10-13T10:02:48;100179.63;;;18.19;100.00
76297;BME280;65104;52.994;6.552;2023-10-13T10:05:26;100173.47;;;18.23;100.00
76297;BME280;65104;52.994;6.552;2023-10-13T10:07:56;100173.03;;;18.42;100.00
76297;BME280;65104;52.994;6.552;2023-10-13T10:10:56;100177.41;;;18.40;100.00
76297;BME280;65104;52.994;6.552;2023-10-13T10:17:19;100151.25;;;18.46;100.00
76297;BME280;65104;52.994;6.552;2023-10-13T10:19:52;100138.88;;;18.55;100.00
76297;BME280;65104;52.994;6.552;2023-10-13T10:22:30;100120.88;;;18.48;100.00
76297;BME280;65104;52.994;6.552;2023-10-13T10:25:00;100153.78;;;18.49;100.00
76297;BME280;65104;52.994;6.552;2023-10-13T10:27:33;100140.63;;;18.55;100.00
76297;BME280;65104;52.994;6.552;2023-10-13T10:30:01;100141.34;;;18.61;100.00
76297;BME280;65104;52.994;6.552;2023-10-13T10:32:39;100146.19;;;18.77;100.00
76297;BME280;65104;52.994;6.552;2023-10-13T10:35:25;100143.69;;;18.72;100.00
76297;BME280;65104;52.994;6.552;2023-10-13T10:37:56;100122.78;;;18.77;100.00
76297;BME280;65104;52.994;6.552;2023-10-13T10:40:35;100124.59;;;18.73;100.00
76297;BME280;65104;52.994;6.552;2023-10-13T10:43:18;100110.69;;;18.74;100.00
76297;BME280;65104;52.994;6.552;2023-10-13T10:45:52;100120.06;;;18.80;100.00
76297;BME280;65104;52.994;6.552;2023-10-13T10:48:18;100119.78;;;18.90;100.00
76297;BME280;65104;52.994;6.552;2023-10-13T10:50:54;100094.16;;;19.07;100.00
76297;BME280;65104;52.994;6.552;2023-10-13T10:53:24;100092.84;;;19.24;100.00
76297;BME280;65104;52.994;6.552;2023-10-13T10:56:11;100084.69;;;19.36;100.00
76297;BME280;65104;52.994;6.552;2023-10-13T10:59:09;100080.66;;;19.55;100.00
76297;BME280;65104;52.994;6.552;2023-10-13T11:01:46;100073.84;;;19.79;100.00
76297;BME280;65104;52.994;6.552;2023-10-13T11:04:14;100078.66;;;20.19;100.00
76297;BME280;65104;52.994;6.552;2023-10-13T11:06:52;100065.03;;;20.37;100.00
76297;BME280;65104;52.994;6.552;2023-10-13T11:09:26;100055.50;;;20.36;100.00
76297;BME280;65104;52.994;6.552;2023-10-13T11:11:53;100055.31;;;20.14;100.00
76297;BME280;65104;52.994;6.552;2023-10-13T11:14:29;100078.16;;;20.08;100.00
76297;BME280;65104;52.994;6.552;2023-10-13T11:16:57;100068.25;;;19.91;100.00
76297;BME280;65104;52.994;6.552;2023-10-13T11:19:38;100060.41;;;19.93;100.00
76297;BME280;65104;52.994;6.552;2023-10-13T11:22:18;100053.56;;;19.89;100.00
76297;BME280;65104;52.994;6.552;2023-10-13T11:25:07;100055.78;;;19.74;100.00
76297;BME280;65104;52.994;6.552;2023-10-13T11:27:41;100060.78;;;19.80;100.00
76297;BME280;65104;52.994;6.552;2023-10-13T11:30:22;100055.84;;;19.71;100.00
76297;BME280;65104;52.994;6.552;2023-10-13T11:33:12;100031.72;;;19.66;100.00
76297;BME280;65104;52.994;6.552;2023-10-13T11:35:44;100027.06;;;19.76;100.00
76297;BME280;65104;52.994;6.552;2023-10-13T11:38:19;100015.13;;;19.69;100.00
76297;BME280;65104;52.994;6.552;2023-10-13T11:41:16;100026.56;;;19.65;100.00
76297;BME280;65104;52.994;6.552;2023-10-13T11:43:51;100026.84;;;19.56;100.00
76297;BME280;65104;52.994;6.552;2023-10-13T11:46:23;100031.38;;;19.49;100.00
76297;BME280;65104;52.994;6.552;2023-10-13T11:49:03;100039.44;;;19.40;100.00
76297;BME280;65104;52.994;6.552;2023-10-13T11:51:47;100027.31;;;19.39;100.00
76297;BME280;65104;52.994;6.552;2023-10-13T11:54:22;100025.94;;;19.57;100.00
76297;BME280;65104;52.994;6.552;2023-10-13T11:56:50;100014.78;;;19.52;100.00
76297;BME280;65104;52.994;6.552;2023-10-13T11:59:16;99999.97;;;19.54;100.00
76297;BME280;65104;52.994;6.552;2023-10-13T12:01:53;100008.81;;;19.50;100.00
76297;BME280;65104;52.994;6.552;2023-10-13T12:04:39;100011.41;;;19.50;100.00
76297;BME280;65104;52.994;6.552;2023-10-13T12:07:23;100001.94;;;19.45;100.00
76297;BME280;65104;52.994;6.552;2023-10-13T12:09:53;99999.66;;;19.35;100.00
76297;BME280;65104;52.994;6.552;2023-10-13T12:12:30;100017.19;;;19.30;100.00
76297;BME280;65104;52.994;6.552;2023-10-13T12:15:16;100019.84;;;19.28;100.00
76297;BME280;65104;52.994;6.552;2023-10-13T12:17:52;100014.31;;;19.09;100.00
76297;BME280;65104;52.994;6.552;2023-10-13T12:20:19;100018.97;;;18.98;100.00
76297;BME280;65104;52.994;6.552;2023-10-13T12:22:59;100015.66;;;18.93;100.00
76297;BME280;65104;52.994;6.552;2023-10-13T12:25:38;100008.75;;;18.92;100.00
76297;BME280;65104;52.994;6.552;2023-10-13T12:28:23;100006.22;;;18.89;100.00
76297;BME280;65104;52.994;6.552;2023-10-13T12:30:53;99994.88;;;18.92;100.00
76297;BME280;65104;52.994;6.552;2023-10-13T12:33:20;99999.03;;;18.97;100.00
76297;BME280;65104;52.994;6.552;2023-10-13T12:36:00;99988.44;;;19.05;100.00
76297;BME280;65104;52.994;6.552;2023-10-13T12:38:58;99995.28;;;19.07;100.00
76297;BME280;65104;52.994;6.552;2023-10-13T12:41:48;99990.00;;;19.10;100.00
76297;BME280;65104;52.994;6.552;2023-10-13T12:44:33;99977.91;;;19.08;100.00
76297;BME280;65104;52.994;6.552;2023-10-13T12:47:18;99994.66;;;18.99;100.00
76297;BME280;65104;52.994;6.552;2023-10-13T12:50:04;99976.38;;;19.02;100.00
76297;BME280;65104;52.994;6.552;2023-10-13T12:52:41;99964.75;;;19.14;100.00
76297;BME280;65104;52.994;6.552;2023-10-13T12:55:11;99972.47;;;19.16;100.00
76297;BME280;65104;52.994;6.552;2023-10-13T12:57:40;99974.19;;;19.17;100.00
76297;BME280;65104;52.994;6.552;2023-10-13T13:00:11;99982.84;;;19.17;100.00
76297;BME280;65104;52.994;6.552;2023-10-13T13:02:54;99973.00;;;19.27;100.00
76297;BME280;65104;52.994;6.552;2023-10-13T13:05:22;99966.16;;;19.24;100.00
76297;BME280;65104;52.994;6.552;2023-10-13T13:07:54;99976.66;;;19.21;100.00
76297;BME280;65104;52.994;6.552;2023-10-13T13:10:21;99975.03;;;19.17;100.00
76297;BME280;65104;52.994;6.552;2023-10-13T13:13:02;99968.25;;;19.13;100.00
76297;BME280;65104;52.994;6.552;2023-10-13T13:15:29;99953.81;;;19.03;100.00
76297;BME280;65104;52.994;6.552;2023-10-13T13:17:55;99955.81;;;18.93;100.00
76297;BME280;65104;52.994;6.552;2023-10-13T13:20:20;99965.56;;;18.87;100.00
76297;BME280;65104;52.994;6.552;2023-10-13T13:22:55;99975.28;;;18.80;100.00
76297;BME280;65104;52.994;6.552;2023-10-13T13:25:21;99965.00;;;18.76;100.00
76297;BME280;65104;52.994;6.552;2023-10-13T13:27:58;99963.34;;;18.73;100.00
76297;BME280;65104;52.994;6.552;2023-10-13T13:30:44;99968.63;;;18.70;100.00
76297;BME280;65104;52.994;6.552;2023-10-13T13:33:30;99968.97;;;18.58;100.00
76297;BME280;65104;52.994;6.552;2023-10-13T13:35:59;99950.53;;;18.67;100.00
76297;BME280;65104;52.994;6.552;2023-10-13T13:38:26;99946.06;;;18.70;100.00